sensor_id;sensor_type;location;lat;lon;timestamp;temperature;humidity
4910;DHT22;2470;49.868;8.660;2023-02-28T00:00:32;1.70;81.30
4910;DHT22;2470;49.868;8.660;2023-02-28T00:02:58;1.80;81.40
4910;DHT22;2470;49.868;8.660;2023-02-28T00:05:25;1.70;81.50
4910;DHT22;2470;49.868;8.660;2023-02-28T00:07:51;1.70;81.90
4910;DHT22;2470;49.868;8.660;2023-02-28T00:10:26;1.70;82.40
4910;DHT22;2470;49.868;8.660;2023-02-28T00:12:53;1.70;83.10
4910;DHT22;2470;49.868;8.660;2023-02-28T00:15:20;1.70;83.30
4910;DHT22;2470;49.868;8.660;2023-02-28T00:17:46;1.70;83.50
4910;DHT22;2470;49.868;8.660;2023-02-28T00:20:12;1.60;83.70
4910;DHT22;2470;49.868;8.660;2023-02-28T00:22:40;1.60;84.30
4910;DHT22;2470;49.868;8.660;2023-02-28T00:25:06;1.60;84.70
4910;DHT22;2470;49.868;8.660;2023-02-28T00:27:33;1.60;85.00
4910;DHT22;2470;49.868;8.660;2023-02-28T00:29:59;1.80;85.70
4910;DHT22;2470;49.868;8.660;2023-02-28T00:32:25;1.60;85.90
4910;DHT22;2470;49.868;8.660;2023-02-28T00:34:50;1.50;86.00
4910;DHT22;2470;49.868;8.660;2023-02-28T00:37:16;1.50;86.50
4910;DHT22;2470;49.868;8.660;2023-02-28T00:39:41;1.50;87.20
4910;DHT22;2470;49.868;8.660;2023-02-28T00:42:08;1.50;87.60
4910;DHT22;2470;49.868;8.660;2023-02-28T00:44:34;1.60;88.10
4910;DHT22;2470;49.868;8.660;2023-02-28T00:47:00;1.60;88.70
4910;DHT22;2470;49.868;8.660;2023-02-28T00:49:28;1.60;88.80
4910;DHT22;2470;49.868;8.660;2023-02-28T00:51:55;1.60;89.70
4910;DHT22;2470;49.868;8.660;2023-02-28T00:54:21;1.60;89.10
4910;DHT22;2470;49.868;8.660;2023-02-28T00:56:47;1.60;89.10
4910;DHT22;2470;49.868;8.660;2023-02-28T00:59:13;1.50;89.30
4910;DHT22;2470;49.868;8.660;2023-02-28T01:01:39;1.60;89.80
4910;DHT22;2470;49.868;8.660;2023-02-28T01:04:04;1.50;89.90
4910;DHT22;2470;49.868;8.660;2023-02-28T01:06:31;1.50;90.00
4910;DHT22;2470;49.868;8.660;2023-02-28T01:08:57;1.50;90.10
4910;DHT22;2470;49.868;8.660;2023-02-28T01:11:22;1.50;90.30
4910;DHT22;2470;49.868;8.660;2023-02-28T01:13:48;1.50;90.40
4910;DHT22;2470;49.868;8.660;2023-02-28T01:16:14;1.40;90.50
4910;DHT22;2470;49.868;8.660;2023-02-28T01:18:40;1.40;90.80
4910;DHT22;2470;49.868;8.660;2023-02-28T01:21:08;1.40;90.90
4910;DHT22;2470;49.868;8.660;2023-02-28T01:23:34;1.30;91.00
4910;DHT22;2470;49.868;8.660;2023-02-28T01:26:07;1.30;91.30
4910;DHT22;2470;49.868;8.660;2023-02-28T01:28:33;1.30;91.60
4910;DHT22;2470;49.868;8.660;2023-02-28T01:30:59;1.30;91.80
4910;DHT22;2470;49.868;8.660;2023-02-28T01:33:25;1.30;91.80
4910;DHT22;2470;49.868;8.660;2023-02-28T01:36:01;1.30;91.90
4910;DHT22;2470;49.868;8.660;2023-02-28T01:38:26;1.30;92.10
4910;DHT22;2470;49.868;8.660;2023-02-28T01:40:52;1.30;92.40
4910;DHT22;2470;49.868;8.660;2023-02-28T01:43:30;1.20;92.50
4910;DHT22;2470;49.868;8.660;2023-02-28T01:45:57;1.30;92.60
4910;DHT22;2470;49.868;8.660;2023-02-28T01:48:26;1.20;92.70
4910;DHT22;2470;49.868;8.660;2023-02-28T01:50:53;1.20;92.90
4910;DHT22;2470;49.868;8.660;2023-02-28T01:53:23;1.20;93.20
4910;DHT22;2470;49.868;8.660;2023-02-28T01:55:52;1.20;93.20
4910;DHT22;2470;49.868;8.660;2023-02-28T01:58:19;1.10;93.30
4910;DHT22;2470;49.868;8.660;2023-02-28T02:00:45;1.10;93.50
4910;DHT22;2470;49.868;8.660;2023-02-28T02:03:13;1.10;93.80
4910;DHT22;2470;49.868;8.660;2023-02-28T02:05:41;1.10;94.00
4910;DHT22;2470;49.868;8.660;2023-02-28T02:08:10;1.10;94.10
4910;DHT22;2470;49.868;8.660;2023-02-28T02:10:44;1.10;94.20
4910;DHT22;2470;49.868;8.660;2023-02-28T02:18:52;1.10;94.60
4910;DHT22;2470;49.868;8.660;2023-02-28T02:21:47;1.00;94.80
4910;DHT22;2470;49.868;8.660;2023-02-28T02:27:25;1.00;95.20
4910;DHT22;2470;49.868;8.660;2023-02-28T02:30:16;1.00;95.40
4910;DHT22;2470;49.868;8.660;2023-02-28T02:33:02;1.00;95.80
4910;DHT22;2470;49.868;8.660;2023-02-28T02:35:47;0.90;96.00
4910;DHT22;2470;49.868;8.660;2023-02-28T02:38:34;1.00;96.40
4910;DHT22;2470;49.868;8.660;2023-02-28T02:41:08;1.00;96.50
4910;DHT22;2470;49.868;8.660;2023-02-28T02:43:47;1.00;96.80
4910;DHT22;2470;49.868;8.660;2023-02-28T02:46:35;1.00;97.10
4910;DHT22;2470;49.868;8.660;2023-02-28T02:49:05;1.00;97.30
4910;DHT22;2470;49.868;8.660;2023-02-28T02:51:32;1.00;97.50
4910;DHT22;2470;49.868;8.660;2023-02-28T02:54:20;0.90;97.70
4910;DHT22;2470;49.868;8.660;2023-02-28T02:56:48;0.90;97.80
4910;DHT22;2470;49.868;8.660;2023-02-28T02:59:18;0.90;98.00
4910;DHT22;2470;49.868;8.660;2023-02-28T03:01:50;1.00;98.10
4910;DHT22;2470;49.868;8.660;2023-02-28T03:04:19;1.00;98.00
4910;DHT22;2470;49.868;8.660;2023-02-28T03:06:46;1.00;98.10
4910;DHT22;2470;49.868;8.660;2023-02-28T03:09:11;1.00;98.30
4910;DHT22;2470;49.868;8.660;2023-02-28T03:11:38;1.00;98.30
4910;DHT22;2470;49.868;8.660;2023-02-28T03:14:10;1.10;98.30
4910;DHT22;2470;49.868;8.660;2023-02-28T03:27:24;1.00;98.30
4910;DHT22;2470;49.868;8.660;2023-02-28T03:30:00;1.00;98.30
4910;DHT22;2470;49.868;8.660;2023-02-28T03:32:31;1.10;98.50
4910;DHT22;2470;49.868;8.660;2023-02-28T03:35:07;1.10;98.60
4910;DHT22;2470;49.868;8.660;2023-02-28T03:37:37;1.10;98.60
4910;DHT22;2470;49.868;8.660;2023-02-28T03:40:12;1.10;98.50
4910;DHT22;2470;49.868;8.660;2023-02-28T03:42:41;1.10;98.60
4910;DHT22;2470;49.868;8.660;2023-02-28T03:45:15;1.00;98.50
4910;DHT22;2470;49.868;8.660;2023-02-28T03:47:46;1.00;98.50
4910;DHT22;2470;49.868;8.660;2023-02-28T03:53:04;0.90;98.90
4910;DHT22;2470;49.868;8.660;2023-02-28T03:55:45;1.00;98.90
4910;DHT22;2470;49.868;8.660;2023-02-28T04:00:57;0.90;98.80
4910;DHT22;2470;49.868;8.660;2023-02-28T04:03:25;0.90;98.90
4910;DHT22;2470;49.868;8.660;2023-02-28T04:05:53;0.90;99.10
4910;DHT22;2470;49.868;8.660;2023-02-28T04:08:20;0.90;99.10
4910;DHT22;2470;49.868;8.660;2023-02-28T04:10:51;1.00;99.30
4910;DHT22;2470;49.868;8.660;2023-02-28T04:13:18;0.90;99.40
4910;DHT22;2470;49.868;8.660;2023-02-28T04:15:44;0.90;99.50
4910;DHT22;2470;49.868;8.660;2023-02-28T04:18:09;0.80;99.60
4910;DHT22;2470;49.868;8.660;2023-02-28T04:20:35;0.80;99.70
4910;DHT22;2470;49.868;8.660;2023-02-28T04:23:00;0.80;99.90
4910;DHT22;2470;49.868;8.660;2023-02-28T04:25:26;0.80;99.90
4910;DHT22;2470;49.868;8.660;2023-02-28T04:27:51;0.80;99.90
4910;DHT22;2470;49.868;8.660;2023-02-28T04:30:17;0.90;99.90
4910;DHT22;2470;49.868;8.660;2023-02-28T04:32:42;0.80;99.90
4910;DHT22;2470;49.868;8.660;2023-02-28T04:35:08;0.90;99.90
4910;DHT22;2470;49.868;8.660;2023-02-28T04:37:33;0.90;99.90
4910;DHT22;2470;49.868;8.660;2023-02-28T04:40:00;0.90;99.90
4910;DHT22;2470;49.868;8.660;2023-02-28T04:42:26;0.90;99.90
4910;DHT22;2470;49.868;8.660;2023-02-28T04:44:52;0.90;99.90
4910;DHT22;2470;49.868;8.660;2023-02-28T04:47:17;0.80;99.90
4910;DHT22;2470;49.868;8.660;2023-02-28T04:49:43;0.80;99.90
4910;DHT22;2470;49.868;8.660;2023-02-28T04:52:08;0.70;99.90
4910;DHT22;2470;49.868;8.660;2023-02-28T04:54:35;0.70;99.90
4910;DHT22;2470;49.868;8.660;2023-02-28T04:57:01;0.70;99.90
4910;DHT22;2470;49.868;8.660;2023-02-28T04:59:27;0.70;99.90
4910;DHT22;2470;49.868;8.660;2023-02-28T05:01:52;0.60;99.90
4910;DHT22;2470;49.868;8.660;2023-02-28T05:04:18;0.60;99.90
4910;DHT22;2470;49.868;8.660;2023-02-28T05:06:44;0.60;99.90
4910;DHT22;2470;49.868;8.660;2023-02-28T05:09:09;0.60;99.90
4910;DHT22;2470;49.868;8.660;2023-02-28T05:11:36;0.50;99.90
4910;DHT22;2470;49.868;8.660;2023-02-28T05:14:06;0.50;99.90
4910;DHT22;2470;49.868;8.660;2023-02-28T05:16:33;0.50;99.90
4910;DHT22;2470;49.868;8.660;2023-02-28T05:18:58;0.50;99.90
4910;DHT22;2470;49.868;8.660;2023-02-28T05:21:41;0.50;99.90
4910;DHT22;2470;49.868;8.660;2023-02-28T05:24:10;0.50;99.90
4910;DHT22;2470;49.868;8.660;2023-02-28T05:26:40;0.50;99.90
4910;DHT22;2470;49.868;8.660;2023-02-28T05:29:06;0.50;99.90
4910;DHT22;2470;49.868;8.660;2023-02-28T05:31:32;0.50;99.90
4910;DHT22;2470;49.868;8.660;2023-02-28T05:33:58;0.50;99.90
4910;DHT22;2470;49.868;8.660;2023-02-28T05:36:24;0.60;99.90
4910;DHT22;2470;49.868;8.660;2023-02-28T05:38:50;0.50;99.90
4910;DHT22;2470;49.868;8.660;2023-02-28T05:41:16;0.50;99.90
4910;DHT22;2470;49.868;8.660;2023-02-28T05:43:42;0.50;99.90
4910;DHT22;2470;49.868;8.660;2023-02-28T05:46:10;0.40;99.90
4910;DHT22;2470;49.868;8.660;2023-02-28T05:48:37;0.40;99.90
4910;DHT22;2470;49.868;8.660;2023-02-28T05:51:04;0.40;99.90
4910;DHT22;2470;49.868;8.660;2023-02-28T05:53:30;0.40;99.90
4910;DHT22;2470;49.868;8.660;2023-02-28T05:55:56;0.40;99.90
4910;DHT22;2470;49.868;8.660;2023-02-28T05:58:22;0.40;99.90
4910;DHT22;2470;49.868;8.660;2023-02-28T06:00:48;0.40;99.90
4910;DHT22;2470;49.868;8.660;2023-02-28T06:03:14;0.40;99.90
4910;DHT22;2470;49.868;8.660;2023-02-28T06:05:40;0.40;99.90
4910;DHT22;2470;49.868;8.660;2023-02-28T06:08:05;0.40;99.90
4910;DHT22;2470;49.868;8.660;2023-02-28T06:10:33;0.40;99.90
4910;DHT22;2470;49.868;8.660;2023-02-28T06:13:03;0.40;99.90
4910;DHT22;2470;49.868;8.660;2023-02-28T06:15:29;0.40;99.90
4910;DHT22;2470;49.868;8.660;2023-02-28T06:17:55;0.40;99.90
4910;DHT22;2470;49.868;8.660;2023-02-28T06:20:25;0.40;99.90
4910;DHT22;2470;49.868;8.660;2023-02-28T06:22:57;0.40;99.90
4910;DHT22;2470;49.868;8.660;2023-02-28T06:25:24;0.40;99.90
4910;DHT22;2470;49.868;8.660;2023-02-28T06:27:50;0.40;99.90
4910;DHT22;2470;49.868;8.660;2023-02-28T06:30:16;0.40;99.90
4910;DHT22;2470;49.868;8.660;2023-02-28T06:32:41;0.40;99.90
4910;DHT22;2470;49.868;8.660;2023-02-28T06:35:07;0.50;99.90
4910;DHT22;2470;49.868;8.660;2023-02-28T06:37:33;0.50;99.90
4910;DHT22;2470;49.868;8.660;2023-02-28T06:39:58;0.50;99.90
4910;DHT22;2470;49.868;8.660;2023-02-28T06:42:25;0.50;99.90
4910;DHT22;2470;49.868;8.660;2023-02-28T06:44:56;0.50;99.90
4910;DHT22;2470;49.868;8.660;2023-02-28T06:47:22;0.50;99.90
4910;DHT22;2470;49.868;8.660;2023-02-28T06:49:49;0.60;99.90
4910;DHT22;2470;49.868;8.660;2023-02-28T06:52:15;0.60;99.90
4910;DHT22;2470;49.868;8.660;2023-02-28T06:54:40;0.70;99.90
4910;DHT22;2470;49.868;8.660;2023-02-28T06:57:06;0.70;99.90
4910;DHT22;2470;49.868;8.660;2023-02-28T06:59:32;0.80;99.90
4910;DHT22;2470;49.868;8.660;2023-02-28T07:01:57;0.80;99.90
4910;DHT22;2470;49.868;8.660;2023-02-28T07:04:23;0.90;99.90
4910;DHT22;2470;49.868;8.660;2023-02-28T07:06:49;0.90;99.90
4910;DHT22;2470;49.868;8.660;2023-02-28T07:09:14;0.90;99.90
4910;DHT22;2470;49.868;8.660;2023-02-28T07:11:40;1.00;99.90
4910;DHT22;2470;49.868;8.660;2023-02-28T07:14:07;0.90;99.90
4910;DHT22;2470;49.868;8.660;2023-02-28T07:16:33;0.90;99.90
4910;DHT22;2470;49.868;8.660;2023-02-28T07:18:58;0.90;99.90
4910;DHT22;2470;49.868;8.660;2023-02-28T07:21:24;0.90;99.90
4910;DHT22;2470;49.868;8.660;2023-02-28T07:23:50;0.90;99.90
4910;DHT22;2470;49.868;8.660;2023-02-28T07:26:18;0.90;99.90
4910;DHT22;2470;49.868;8.660;2023-02-28T07:28:45;1.00;99.90
4910;DHT22;2470;49.868;8.660;2023-02-28T07:31:12;1.00;99.90
4910;DHT22;2470;49.868;8.660;2023-02-28T07:33:39;1.00;99.90
4910;DHT22;2470;49.868;8.660;2023-02-28T07:36:08;1.00;99.90
4910;DHT22;2470;49.868;8.660;2023-02-28T07:38:35;1.10;99.50
4910;DHT22;2470;49.868;8.660;2023-02-28T07:41:01;1.10;99.30
4910;DHT22;2470;49.868;8.660;2023-02-28T07:43:35;1.20;99.20
4910;DHT22;2470;49.868;8.660;2023-02-28T07:46:06;1.30;99.10
4910;DHT22;2470;49.868;8.660;2023-02-28T07:48:32;1.40;98.80
4910;DHT22;2470;49.868;8.660;2023-02-28T07:50:59;1.50;98.30
4910;DHT22;2470;49.868;8.660;2023-02-28T07:53:25;1.60;98.00
4910;DHT22;2470;49.868;8.660;2023-02-28T07:55:50;1.70;97.60
4910;DHT22;2470;49.868;8.660;2023-02-28T07:58:16;1.80;97.10
4910;DHT22;2470;49.868;8.660;2023-02-28T08:00:41;1.90;97.00
4910;DHT22;2470;49.868;8.660;2023-02-28T08:03:12;1.90;96.90
4910;DHT22;2470;49.868;8.660;2023-02-28T08:05:39;2.00;96.60
4910;DHT22;2470;49.868;8.660;2023-02-28T08:08:05;2.20;96.20
4910;DHT22;2470;49.868;8.660;2023-02-28T08:10:31;2.30;95.80
4910;DHT22;2470;49.868;8.660;2023-02-28T08:12:57;2.40;95.50
4910;DHT22;2470;49.868;8.660;2023-02-28T08:15:22;2.50;95.10
4910;DHT22;2470;49.868;8.660;2023-02-28T08:17:48;2.50;94.60
4910;DHT22;2470;49.868;8.660;2023-02-28T08:20:13;2.60;94.40
4910;DHT22;2470;49.868;8.660;2023-02-28T08:22:39;2.60;94.00
4910;DHT22;2470;49.868;8.660;2023-02-28T08:25:05;2.70;93.90
4910;DHT22;2470;49.868;8.660;2023-02-28T08:27:32;2.80;95.80
4910;DHT22;2470;49.868;8.660;2023-02-28T08:29:58;3.00;94.50
4910;DHT22;2470;49.868;8.660;2023-02-28T08:32:23;3.10;93.40
4910;DHT22;2470;49.868;8.660;2023-02-28T08:34:49;3.20;93.20
4910;DHT22;2470;49.868;8.660;2023-02-28T08:37:15;3.30;93.30
4910;DHT22;2470;49.868;8.660;2023-02-28T08:39:40;3.30;92.40
4910;DHT22;2470;49.868;8.660;2023-02-28T08:42:06;3.30;91.90
4910;DHT22;2470;49.868;8.660;2023-02-28T08:44:31;3.20;91.70
4910;DHT22;2470;49.868;8.660;2023-02-28T08:46:57;3.20;91.50
4910;DHT22;2470;49.868;8.660;2023-02-28T08:49:22;3.10;91.20
4910;DHT22;2470;49.868;8.660;2023-02-28T08:51:48;3.00;91.30
4910;DHT22;2470;49.868;8.660;2023-02-28T08:54:13;3.00;91.40
4910;DHT22;2470;49.868;8.660;2023-02-28T08:56:41;3.10;91.30
4910;DHT22;2470;49.868;8.660;2023-02-28T08:59:09;3.10;91.30
4910;DHT22;2470;49.868;8.660;2023-02-28T09:01:34;3.10;91.40
4910;DHT22;2470;49.868;8.660;2023-02-28T09:04:01;3.10;91.10
4910;DHT22;2470;49.868;8.660;2023-02-28T09:06:28;3.20;90.80
4910;DHT22;2470;49.868;8.660;2023-02-28T09:08:56;3.10;90.60
4910;DHT22;2470;49.868;8.660;2023-02-28T09:11:23;3.10;90.60
4910;DHT22;2470;49.868;8.660;2023-02-28T09:13:49;3.10;90.60
4910;DHT22;2470;49.868;8.660;2023-02-28T09:16:16;3.10;90.50
4910;DHT22;2470;49.868;8.660;2023-02-28T09:18:42;3.10;90.60
4910;DHT22;2470;49.868;8.660;2023-02-28T09:21:10;3.10;90.60
4910;DHT22;2470;49.868;8.660;2023-02-28T09:23:38;3.20;90.70
4910;DHT22;2470;49.868;8.660;2023-02-28T09:26:04;3.20;90.40
4910;DHT22;2470;49.868;8.660;2023-02-28T09:28:30;3.30;90.40
4910;DHT22;2470;49.868;8.660;2023-02-28T09:30:56;3.30;90.20
4910;DHT22;2470;49.868;8.660;2023-02-28T09:33:24;3.40;90.20
4910;DHT22;2470;49.868;8.660;2023-02-28T09:35:50;3.40;90.30
4910;DHT22;2470;49.868;8.660;2023-02-28T09:38:17;3.50;89.70
4910;DHT22;2470;49.868;8.660;2023-02-28T09:41:03;3.60;88.80
4910;DHT22;2470;49.868;8.660;2023-02-28T09:43:33;3.60;88.00
4910;DHT22;2470;49.868;8.660;2023-02-28T09:46:27;3.70;87.10
4910;DHT22;2470;49.868;8.660;2023-02-28T09:48:54;3.70;90.40
4910;DHT22;2470;49.868;8.660;2023-02-28T09:51:33;4.00;93.90
4910;DHT22;2470;49.868;8.660;2023-02-28T09:54:01;4.10;90.30
4910;DHT22;2470;49.868;8.660;2023-02-28T09:56:48;4.20;86.20
4910;DHT22;2470;49.868;8.660;2023-02-28T09:59:42;4.20;85.00
4910;DHT22;2470;49.868;8.660;2023-02-28T10:05:18;4.20;81.50
4910;DHT22;2470;49.868;8.660;2023-02-28T10:08:01;4.20;80.80
4910;DHT22;2470;49.868;8.660;2023-02-28T10:10:49;4.20;79.80
4910;DHT22;2470;49.868;8.660;2023-02-28T10:13:36;4.30;80.20
4910;DHT22;2470;49.868;8.660;2023-02-28T10:16:16;4.30;79.00
4910;DHT22;2470;49.868;8.660;2023-02-28T10:18:59;4.40;77.90
4910;DHT22;2470;49.868;8.660;2023-02-28T10:21:34;4.40;77.60
4910;DHT22;2470;49.868;8.660;2023-02-28T10:24:16;4.60;78.50
4910;DHT22;2470;49.868;8.660;2023-02-28T10:26:45;4.90;79.20
4910;DHT22;2470;49.868;8.660;2023-02-28T10:29:12;4.90;77.10
4910;DHT22;2470;49.868;8.660;2023-02-28T10:31:38;5.00;76.40
4910;DHT22;2470;49.868;8.660;2023-02-28T10:34:04;5.10;76.00
4910;DHT22;2470;49.868;8.660;2023-02-28T10:36:31;5.30;74.70
4910;DHT22;2470;49.868;8.660;2023-02-28T10:38:57;5.40;73.80
4910;DHT22;2470;49.868;8.660;2023-02-28T10:41:31;5.40;73.30
4910;DHT22;2470;49.868;8.660;2023-02-28T10:44:20;5.50;72.80
4910;DHT22;2470;49.868;8.660;2023-02-28T10:46:46;5.60;72.20
4910;DHT22;2470;49.868;8.660;2023-02-28T10:49:23;5.60;72.00
4910;DHT22;2470;49.868;8.660;2023-02-28T10:51:52;5.50;71.50
4910;DHT22;2470;49.868;8.660;2023-02-28T10:54:22;5.50;71.90
4910;DHT22;2470;49.868;8.660;2023-02-28T10:57:20;5.50;71.20
4910;DHT22;2470;49.868;8.660;2023-02-28T10:59:51;5.60;70.80
4910;DHT22;2470;49.868;8.660;2023-02-28T11:02:31;5.50;70.50
4910;DHT22;2470;49.868;8.660;2023-02-28T11:04:56;5.60;70.80
4910;DHT22;2470;49.868;8.660;2023-02-28T11:07:23;5.60;69.80
4910;DHT22;2470;49.868;8.660;2023-02-28T11:09:52;5.60;69.60
4910;DHT22;2470;49.868;8.660;2023-02-28T11:15:23;5.50;68.90
4910;DHT22;2470;49.868;8.660;2023-02-28T11:20:51;5.50;69.50
4910;DHT22;2470;49.868;8.660;2023-02-28T11:23:19;5.60;69.80
4910;DHT22;2470;49.868;8.660;2023-02-28T11:25:50;5.70;69.40
4910;DHT22;2470;49.868;8.660;2023-02-28T11:28:34;5.70;68.80
4910;DHT22;2470;49.868;8.660;2023-02-28T11:33:54;5.70;69.00
4910;DHT22;2470;49.868;8.660;2023-02-28T11:36:29;5.60;68.70
4910;DHT22;2470;49.868;8.660;2023-02-28T11:38:59;5.60;68.10
4910;DHT22;2470;49.868;8.660;2023-02-28T11:42:10;5.60;67.50
4910;DHT22;2470;49.868;8.660;2023-02-28T11:50:45;5.90;67.80
4910;DHT22;2470;49.868;8.660;2023-02-28T11:53:47;6.00;67.90
4910;DHT22;2470;49.868;8.660;2023-02-28T11:56:31;6.10;67.00
4910;DHT22;2470;49.868;8.660;2023-02-28T12:02:00;6.20;66.60
4910;DHT22;2470;49.868;8.660;2023-02-28T12:07:36;6.40;65.90
4910;DHT22;2470;49.868;8.660;2023-02-28T12:10:13;6.60;66.00
4910;DHT22;2470;49.868;8.660;2023-02-28T12:21:08;7.40;64.70
4910;DHT22;2470;49.868;8.660;2023-02-28T12:24:01;7.90;63.90
4910;DHT22;2470;49.868;8.660;2023-02-28T12:26:37;8.40;62.20
4910;DHT22;2470;49.868;8.660;2023-02-28T12:29:19;8.90;60.10
4910;DHT22;2470;49.868;8.660;2023-02-28T12:34:21;9.60;57.70
4910;DHT22;2470;49.868;8.660;2023-02-28T12:36:49;10.30;55.90
4910;DHT22;2470;49.868;8.660;2023-02-28T12:39:23;11.00;54.10
4910;DHT22;2470;49.868;8.660;2023-02-28T12:41:58;11.60;53.50
4910;DHT22;2470;49.868;8.660;2023-02-28T12:44:35;12.00;53.10
4910;DHT22;2470;49.868;8.660;2023-02-28T12:47:10;12.40;51.80
4910;DHT22;2470;49.868;8.660;2023-02-28T12:49:56;12.70;49.70
4910;DHT22;2470;49.868;8.660;2023-02-28T12:52:31;13.20;49.10
4910;DHT22;2470;49.868;8.660;2023-02-28T12:55:19;13.70;46.30
4910;DHT22;2470;49.868;8.660;2023-02-28T12:57:53;13.60;47.00
4910;DHT22;2470;49.868;8.660;2023-02-28T13:00:23;13.70;45.30
4910;DHT22;2470;49.868;8.660;2023-02-28T13:03:10;13.90;44.50
4910;DHT22;2470;49.868;8.660;2023-02-28T13:09:09;14.90;42.80
4910;DHT22;2470;49.868;8.660;2023-02-28T13:19:34;17.80;39.20
4910;DHT22;2470;49.868;8.660;2023-02-28T13:22:01;18.50;37.80
4910;DHT22;2470;49.868;8.660;2023-02-28T13:24:44;19.10;36.90
4910;DHT22;2470;49.868;8.660;2023-02-28T13:27:19;19.90;36.10
4910;DHT22;2470;49.868;8.660;2023-02-28T13:29:51;20.60;34.70
4910;DHT22;2470;49.868;8.660;2023-02-28T13:39:57;22.60;30.90
4910;DHT22;2470;49.868;8.660;2023-02-28T13:58:43;25.40;27.60
4910;DHT22;2470;49.868;8.660;2023-02-28T14:01:47;25.60;26.70
4910;DHT22;2470;49.868;8.660;2023-02-28T14:07:25;26.40;26.30
4910;DHT22;2470;49.868;8.660;2023-02-28T14:09:58;26.50;25.80
4910;DHT22;2470;49.868;8.660;2023-02-28T14:18:25;26.00;25.00
4910;DHT22;2470;49.868;8.660;2023-02-28T14:20:56;25.40;25.10
4910;DHT22;2470;49.868;8.660;2023-02-28T14:23:33;24.60;25.10
4910;DHT22;2470;49.868;8.660;2023-02-28T14:29:18;23.10;25.90
4910;DHT22;2470;49.868;8.660;2023-02-28T14:31:58;21.80;26.10
4910;DHT22;2470;49.868;8.660;2023-02-28T14:34:49;20.40;26.80
4910;DHT22;2470;49.868;8.660;2023-02-28T14:37:23;19.30;27.20
4910;DHT22;2470;49.868;8.660;2023-02-28T14:39:51;18.50;27.80
4910;DHT22;2470;49.868;8.660;2023-02-28T14:42:32;18.10;28.70
4910;DHT22;2470;49.868;8.660;2023-02-28T14:44:58;17.90;28.50
4910;DHT22;2470;49.868;8.660;2023-02-28T14:47:28;17.80;28.90
4910;DHT22;2470;49.868;8.660;2023-02-28T14:49:55;17.70;28.80
4910;DHT22;2470;49.868;8.660;2023-02-28T14:52:31;17.30;28.90
4910;DHT22;2470;49.868;8.660;2023-02-28T14:55:10;16.90;29.00
4910;DHT22;2470;49.868;8.660;2023-02-28T14:57:50;17.30;29.50
4910;DHT22;2470;49.868;8.660;2023-02-28T15:00:25;17.90;28.90
4910;DHT22;2470;49.868;8.660;2023-02-28T15:02:51;18.20;28.50
4910;DHT22;2470;49.868;8.660;2023-02-28T15:05:27;18.10;28.70
4910;DHT22;2470;49.868;8.660;2023-02-28T15:08:11;19.30;28.70
4910;DHT22;2470;49.868;8.660;2023-02-28T15:10:40;20.30;28.20
4910;DHT22;2470;49.868;8.660;2023-02-28T15:13:11;20.70;27.50
4910;DHT22;2470;49.868;8.660;2023-02-28T15:15:56;20.70;27.50
4910;DHT22;2470;49.868;8.660;2023-02-28T15:18:48;21.00;27.50
4910;DHT22;2470;49.868;8.660;2023-02-28T15:21:17;21.00;27.30
4910;DHT22;2470;49.868;8.660;2023-02-28T15:23:56;19.60;27.50
4910;DHT22;2470;49.868;8.660;2023-02-28T15:26:27;18.00;28.10
4910;DHT22;2470;49.868;8.660;2023-02-28T15:29:00;16.30;28.90
4910;DHT22;2470;49.868;8.660;2023-02-28T15:31:34;15.60;30.00
4910;DHT22;2470;49.868;8.660;2023-02-28T15:34:06;15.40;30.40
4910;DHT22;2470;49.868;8.660;2023-02-28T15:36:33;15.20;30.40
4910;DHT22;2470;49.868;8.660;2023-02-28T15:39:03;14.50;30.60
4910;DHT22;2470;49.868;8.660;2023-02-28T15:41:43;14.10;31.80
4910;DHT22;2470;49.868;8.660;2023-02-28T15:44:26;13.70;32.30
4910;DHT22;2470;49.868;8.660;2023-02-28T15:46:58;13.30;32.30
4910;DHT22;2470;49.868;8.660;2023-02-28T15:49:25;12.80;32.90
4910;DHT22;2470;49.868;8.660;2023-02-28T15:51:52;12.80;33.50
4910;DHT22;2470;49.868;8.660;2023-02-28T15:54:31;12.80;33.30
4910;DHT22;2470;49.868;8.660;2023-02-28T15:57:03;12.40;33.40
4910;DHT22;2470;49.868;8.660;2023-02-28T15:59:30;11.80;34.00
4910;DHT22;2470;49.868;8.660;2023-02-28T16:02:16;11.40;34.70
4910;DHT22;2470;49.868;8.660;2023-02-28T16:07:41;11.40;35.20
4910;DHT22;2470;49.868;8.660;2023-02-28T16:10:08;11.20;35.40
4910;DHT22;2470;49.868;8.660;2023-02-28T16:12:36;10.90;35.40
4910;DHT22;2470;49.868;8.660;2023-02-28T16:15:07;10.60;36.00
4910;DHT22;2470;49.868;8.660;2023-02-28T16:17:35;10.60;36.60
4910;DHT22;2470;49.868;8.660;2023-02-28T16:20:16;10.50;37.30
4910;DHT22;2470;49.868;8.660;2023-02-28T16:22:42;10.40;37.00
4910;DHT22;2470;49.868;8.660;2023-02-28T16:25:38;10.40;37.00
4910;DHT22;2470;49.868;8.660;2023-02-28T16:28:10;10.30;36.90
4910;DHT22;2470;49.868;8.660;2023-02-28T16:30:38;10.00;37.40
4910;DHT22;2470;49.868;8.660;2023-02-28T16:33:03;9.60;38.70
4910;DHT22;2470;49.868;8.660;2023-02-28T16:35:29;9.30;39.50
4910;DHT22;2470;49.868;8.660;2023-02-28T16:37:54;9.00;40.00
4910;DHT22;2470;49.868;8.660;2023-02-28T16:40:25;8.80;41.00
4910;DHT22;2470;49.868;8.660;2023-02-28T16:42:53;8.60;40.90
4910;DHT22;2470;49.868;8.660;2023-02-28T16:45:27;8.40;41.30
4910;DHT22;2470;49.868;8.660;2023-02-28T16:47:53;8.20;41.70
4910;DHT22;2470;49.868;8.660;2023-02-28T16:50:25;8.10;42.00
4910;DHT22;2470;49.868;8.660;2023-02-28T16:52:51;8.00;42.50
4910;DHT22;2470;49.868;8.660;2023-02-28T16:55:23;7.90;42.80
4910;DHT22;2470;49.868;8.660;2023-02-28T16:57:59;7.90;43.90
4910;DHT22;2470;49.868;8.660;2023-02-28T17:00:26;7.60;43.60
4910;DHT22;2470;49.868;8.660;2023-02-28T17:02:52;7.50;44.00
4910;DHT22;2470;49.868;8.660;2023-02-28T17:05:18;7.40;44.40
4910;DHT22;2470;49.868;8.660;2023-02-28T17:07:45;7.50;44.80
4910;DHT22;2470;49.868;8.660;2023-02-28T17:10:20;7.20;44.90
4910;DHT22;2470;49.868;8.660;2023-02-28T17:12:45;7.10;45.10
4910;DHT22;2470;49.868;8.660;2023-02-28T17:15:12;7.10;45.50
4910;DHT22;2470;49.868;8.660;2023-02-28T17:17:39;7.00;45.70
4910;DHT22;2470;49.868;8.660;2023-02-28T17:20:05;6.90;46.20
4910;DHT22;2470;49.868;8.660;2023-02-28T17:22:32;6.80;46.40
4910;DHT22;2470;49.868;8.660;2023-02-28T17:24:57;6.80;46.80
4910;DHT22;2470;49.868;8.660;2023-02-28T17:27:24;6.70;46.90
4910;DHT22;2470;49.868;8.660;2023-02-28T17:29:50;6.60;47.30
4910;DHT22;2470;49.868;8.660;2023-02-28T17:32:16;6.50;47.50
4910;DHT22;2470;49.868;8.660;2023-02-28T17:34:41;6.40;47.90
4910;DHT22;2470;49.868;8.660;2023-02-28T17:37:09;6.30;48.30
4910;DHT22;2470;49.868;8.660;2023-02-28T17:39:34;6.20;48.70
4910;DHT22;2470;49.868;8.660;2023-02-28T17:42:00;6.20;49.80
4910;DHT22;2470;49.868;8.660;2023-02-28T17:44:25;6.10;49.40
4910;DHT22;2470;49.868;8.660;2023-02-28T17:46:53;6.10;49.60
4910;DHT22;2470;49.868;8.660;2023-02-28T17:49:19;6.00;49.70
4910;DHT22;2470;49.868;8.660;2023-02-28T17:51:45;6.00;50.10
4910;DHT22;2470;49.868;8.660;2023-02-28T17:54:10;5.90;50.40
4910;DHT22;2470;49.868;8.660;2023-02-28T17:56:36;5.90;50.60
4910;DHT22;2470;49.868;8.660;2023-02-28T17:59:02;5.80;50.90
4910;DHT22;2470;49.868;8.660;2023-02-28T18:01:28;5.80;51.20
4910;DHT22;2470;49.868;8.660;2023-02-28T18:04:03;5.80;51.30
4910;DHT22;2470;49.868;8.660;2023-02-28T18:06:38;5.80;51.60
4910;DHT22;2470;49.868;8.660;2023-02-28T18:09:12;5.90;52.10
4910;DHT22;2470;49.868;8.660;2023-02-28T18:11:38;5.70;52.20
4910;DHT22;2470;49.868;8.660;2023-02-28T18:14:10;5.70;52.40
4910;DHT22;2470;49.868;8.660;2023-02-28T18:16:45;5.60;52.60
4910;DHT22;2470;49.868;8.660;2023-02-28T18:19:12;5.60;52.70
4910;DHT22;2470;49.868;8.660;2023-02-28T18:21:49;5.50;53.00
4910;DHT22;2470;49.868;8.660;2023-02-28T18:24:15;5.50;53.20